createdAt,value
2023-04-18T00:00:28.341Z,16.80
2023-04-18T00:01:28.254Z,16.90
2023-04-18T00:02:28.353Z,16.30
2023-04-18T00:03:28.486Z,17.50
2023-04-18T00:04:28.279Z,17.80
2023-04-18T00:05:29.253Z,17.80
2023-04-18T00:06:28.205Z,18.60
2023-04-18T00:07:28.184Z,18.50
2023-04-18T00:08:28.250Z,18.90
2023-04-18T00:09:29.039Z,19.30
2023-04-18T00:10:28.175Z,19.20
2023-04-18T00:11:28.145Z,19.80
2023-04-18T00:12:28.131Z,19.70
2023-04-18T00:13:28.100Z,20.00
2023-04-18T00:14:28.121Z,20.10
2023-04-18T00:15:28.381Z,20.60
2023-04-18T00:16:28.150Z,20.50
2023-04-18T00:17:29.005Z,20.70
2023-04-18T00:18:28.027Z,20.60
2023-04-18T00:19:28.217Z,21.60
2023-04-18T00:20:28.196Z,22.00
2023-04-18T00:21:28.093Z,21.90
2023-04-18T00:22:28.032Z,22.20
2023-04-18T00:23:28.395Z,21.90
2023-04-18T00:24:27.931Z,22.80
2023-04-18T00:25:28.006Z,22.50
2023-04-18T00:26:27.910Z,21.70
2023-04-18T00:27:27.934Z,21.90
2023-04-18T00:28:27.948Z,23.30
2023-04-18T00:29:27.851Z,23.70
2023-04-18T00:30:28.370Z,22.50
2023-04-18T00:31:27.929Z,24.30
2023-04-18T00:32:27.818Z,24.40
2023-04-18T00:33:27.837Z,23.40
2023-04-18T00:34:27.875Z,23.20
2023-04-18T00:35:27.789Z,22.90
2023-04-18T00:36:27.763Z,24.40
2023-04-18T00:37:27.759Z,24.90
2023-04-18T00:38:27.849Z,24.10
2023-04-18T00:39:27.734Z,25.40
2023-04-18T00:40:27.731Z,25.50
2023-04-18T00:41:27.775Z,26.10
2023-04-18T00:42:27.881Z,25.70
2023-04-18T00:43:27.710Z,26.60
2023-04-18T00:44:28.441Z,25.30
2023-04-18T00:45:27.629Z,27.50
2023-04-18T00:46:27.660Z,28.20
2023-04-18T00:47:27.677Z,29.60
2023-04-18T00:48:27.613Z,31.00
2023-04-18T00:49:28.541Z,29.30
2023-04-18T00:50:27.603Z,31.60
2023-04-18T00:51:28.565Z,32.20
2023-04-18T00:52:27.571Z,33.30
2023-04-18T00:53:28.340Z,33.20
2023-04-18T00:54:27.549Z,33.60
2023-04-18T00:55:28.421Z,32.50
2023-04-18T00:56:28.332Z,37.20
2023-04-18T00:57:27.600Z,35.00
2023-04-18T00:58:28.381Z,37.40
2023-04-18T00:59:28.280Z,35.60
2023-04-18T01:00:27.469Z,35.70
2023-04-18T01:01:27.544Z,35.90
2023-04-18T01:02:27.951Z,34.60
2023-04-18T01:03:27.591Z,37.90
2023-04-18T01:04:27.594Z,34.20
2023-04-18T01:05:27.534Z,34.60
2023-04-18T01:06:27.576Z,36.50
2023-04-18T01:07:27.342Z,36.20
2023-04-18T01:08:27.590Z,35.00
2023-04-18T01:09:27.610Z,35.60
2023-04-18T01:10:27.358Z,35.10
2023-04-18T01:11:27.404Z,34.60
2023-04-18T01:12:27.526Z,35.50
2023-04-18T01:13:27.285Z,34.20
2023-04-18T01:14:27.342Z,34.30
2023-04-18T01:15:27.582Z,34.70
2023-04-18T01:16:27.422Z,35.40
2023-04-18T01:17:27.396Z,32.80
2023-04-18T01:18:27.253Z,34.30
2023-04-18T01:19:27.551Z,32.80
2023-04-18T01:20:27.372Z,33.50
2023-04-18T01:21:27.184Z,31.30
2023-04-18T01:22:27.126Z,32.10
2023-04-18T01:23:27.593Z,32.90
2023-04-18T01:24:27.201Z,32.50
2023-04-18T01:25:27.203Z,30.70
2023-04-18T01:26:27.230Z,30.40
2023-04-18T01:27:27.967Z,29.70
2023-04-18T01:28:27.077Z,29.70
2023-04-18T01:29:27.104Z,30.80
2023-04-18T01:30:27.851Z,30.50
2023-04-18T01:31:27.888Z,31.50
2023-04-18T01:32:27.093Z,31.30
2023-04-18T01:33:27.081Z,30.20
2023-04-18T01:34:27.074Z,30.90
2023-04-18T01:35:27.024Z,29.80
2023-04-18T01:36:26.941Z,30.50
2023-04-18T01:37:26.960Z,31.70
2023-04-18T01:38:27.058Z,31.80
2023-04-18T01:39:26.959Z,31.30
2023-04-18T01:40:26.866Z,32.80
2023-04-18T01:41:27.136Z,31.70
2023-04-18T01:42:26.869Z,31.20
2023-04-18T01:43:26.972Z,30.90
2023-04-18T01:44:26.860Z,31.60
2023-04-18T01:45:26.842Z,32.90
2023-04-18T01:46:26.865Z,33.70
2023-04-18T01:47:27.812Z,33.30
2023-04-18T01:48:26.792Z,34.50
2023-04-18T01:49:26.721Z,34.80
2023-04-18T01:50:26.788Z,35.50
2023-04-18T01:51:26.780Z,35.00
2023-04-18T01:52:26.696Z,38.20
2023-04-18T01:53:26.696Z,37.60
2023-04-18T01:54:26.862Z,38.80
2023-04-18T01:55:26.641Z,40.60
2023-04-18T01:56:26.743Z,40.30
2023-04-18T01:57:26.669Z,40.80
2023-04-18T01:58:26.631Z,40.10
2023-04-18T01:59:26.746Z,41.30
2023-04-18T02:00:26.587Z,39.10
2023-04-18T02:01:26.858Z,42.80
2023-04-18T02:02:26.804Z,42.30
2023-04-18T02:03:26.721Z,41.30
2023-04-18T02:04:26.690Z,41.60
2023-04-18T02:05:26.582Z,42.90
2023-04-18T02:06:26.561Z,43.30
2023-04-18T02:07:26.906Z,41.90
2023-04-18T02:08:26.518Z,42.60
2023-04-18T02:09:26.521Z,42.80
2023-04-18T02:10:26.441Z,42.70
2023-04-18T02:11:26.525Z,42.20
2023-04-18T02:12:26.452Z,43.90
2023-04-18T02:13:26.473Z,47.00
2023-04-18T02:14:26.473Z,43.10
2023-04-18T02:15:26.447Z,42.10
2023-04-18T02:16:26.541Z,42.90
2023-04-18T02:17:26.420Z,43.20
2023-04-18T02:18:26.388Z,40.60
2023-04-18T02:19:26.330Z,43.10
2023-04-18T02:20:26.377Z,41.50
2023-04-18T02:21:26.309Z,42.70
2023-04-18T02:22:26.311Z,43.00
2023-04-18T02:23:26.301Z,45.10
2023-04-18T02:24:26.319Z,45.70
2023-04-18T02:25:26.299Z,46.80
2023-04-18T02:26:26.366Z,43.60
2023-04-18T02:27:26.371Z,46.80
2023-04-18T02:28:26.249Z,42.80
2023-04-18T02:29:26.221Z,48.10
2023-04-18T02:30:26.229Z,43.00
2023-04-18T02:31:26.438Z,45.10
2023-04-18T02:32:26.387Z,46.60
2023-04-18T02:33:26.183Z,46.60
2023-04-18T02:34:26.262Z,50.80
2023-04-18T02:35:26.157Z,46.50
2023-04-18T02:36:26.321Z,49.70
2023-04-18T02:37:26.280Z,47.30
2023-04-18T02:38:26.497Z,47.90
2023-04-18T02:39:26.146Z,48.00
2023-04-18T02:40:26.243Z,53.50
2023-04-18T02:41:26.123Z,52.50
2023-04-18T02:42:26.073Z,51.00
2023-04-18T02:43:26.363Z,55.60
2023-04-18T02:44:26.109Z,52.30
2023-04-18T02:45:26.054Z,55.30
2023-04-18T02:46:26.159Z,52.10
2023-04-18T02:47:26.520Z,52.80
2023-04-18T02:48:26.915Z,57.40
2023-04-18T02:49:25.993Z,53.80
2023-04-18T02:50:25.938Z,52.70
2023-04-18T02:51:26.755Z,55.70
2023-04-18T02:52:25.862Z,58.00
2023-04-18T02:53:25.894Z,55.30
2023-04-18T02:54:25.960Z,51.90
2023-04-18T02:55:25.873Z,61.00
2023-04-18T02:56:25.839Z,57.10
2023-04-18T02:57:25.792Z,55.60
2023-04-18T02:58:25.812Z,54.10
2023-04-18T02:59:25.824Z,59.10
2023-04-18T03:00:25.822Z,65.60
2023-04-18T03:01:25.978Z,58.50
2023-04-18T03:02:25.875Z,66.80
2023-04-18T03:03:25.906Z,61.40
2023-04-18T03:04:25.752Z,59.30
2023-04-18T03:05:25.756Z,57.60
2023-04-18T03:06:25.865Z,57.60
2023-04-18T03:07:25.724Z,59.40
2023-04-18T03:08:25.743Z,58.10
2023-04-18T03:09:25.771Z,66.80
2023-04-18T03:10:25.753Z,68.80
2023-04-18T03:11:25.751Z,63.00
2023-04-18T03:12:26.784Z,60.40
2023-04-18T03:13:25.613Z,62.20
2023-04-18T03:14:25.607Z,58.80
2023-04-18T03:15:25.587Z,67.60
2023-04-18T03:16:25.658Z,71.40
2023-04-18T03:17:25.684Z,58.20
2023-04-18T03:18:25.873Z,60.60
2023-04-18T03:19:25.856Z,57.40
2023-04-18T03:20:25.523Z,68.30
2023-04-18T03:21:25.580Z,61.80
2023-04-18T03:22:25.488Z,58.40
2023-04-18T03:23:25.717Z,56.80
2023-04-18T03:24:25.429Z,61.60
2023-04-18T03:25:25.414Z,59.40
2023-04-18T03:26:26.240Z,60.40
2023-04-18T03:27:25.740Z,59.80
2023-04-18T03:28:25.389Z,57.90
2023-04-18T03:29:25.447Z,53.80
2023-04-18T03:30:25.695Z,53.80
2023-04-18T03:31:25.354Z,66.20
2023-04-18T03:32:25.455Z,58.60
2023-04-18T03:33:25.331Z,59.70
2023-04-18T03:34:25.320Z,59.30
2023-04-18T03:35:25.288Z,64.10
2023-04-18T03:36:25.361Z,60.90
2023-04-18T03:37:25.366Z,55.10
2023-04-18T03:38:25.290Z,62.80
2023-04-18T03:39:25.263Z,60.30
2023-04-18T03:40:25.205Z,60.60
2023-04-18T03:41:25.249Z,58.40
2023-04-18T03:42:25.185Z,60.80
2023-04-18T03:43:25.180Z,64.90
2023-04-18T03:44:26.696Z,59.00
2023-04-18T03:45:25.193Z,57.50
2023-04-18T03:46:25.403Z,62.90
2023-04-18T03:47:25.621Z,71.40
2023-04-18T03:48:25.462Z,61.30
2023-04-18T03:49:25.406Z,73.90
2023-04-18T03:50:25.038Z,58.20
2023-04-18T03:51:25.763Z,66.00
2023-04-18T03:52:25.092Z,58.20
2023-04-18T03:53:25.455Z,58.40
2023-04-18T03:54:25.073Z,64.00
2023-04-18T03:55:25.034Z,56.10
2023-04-18T03:56:25.032Z,58.90
2023-04-18T03:57:24.969Z,65.00
2023-04-18T03:58:24.934Z,63.90
2023-04-18T03:59:24.968Z,65.40
2023-04-18T04:00:25.114Z,57.30
2023-04-18T04:01:24.899Z,59.10
2023-04-18T04:02:25.016Z,67.60
2023-04-18T04:03:25.014Z,55.90
2023-04-18T04:04:24.870Z,55.60
2023-04-18T04:05:24.865Z,56.90
2023-04-18T04:06:24.833Z,57.20
2023-04-18T04:07:24.818Z,60.20
2023-04-18T04:08:27.023Z,57.40
2023-04-18T04:09:24.785Z,53.10
2023-04-18T04:10:24.711Z,53.10
2023-04-18T04:11:24.804Z,65.80
2023-04-18T04:12:24.782Z,64.30
2023-04-18T04:13:24.732Z,64.40
2023-04-18T04:14:24.790Z,71.90
2023-04-18T04:15:24.796Z,70.80
2023-04-18T04:16:24.704Z,65.40
2023-04-18T04:17:24.723Z,70.00
2023-04-18T04:18:25.563Z,64.00
2023-04-18T04:19:24.643Z,65.90
2023-04-18T04:20:24.718Z,67.00
2023-04-18T04:21:24.628Z,64.20
2023-04-18T04:22:24.573Z,61.10
2023-04-18T04:23:24.597Z,60.00
2023-04-18T04:24:24.596Z,59.70
2023-04-18T04:25:24.626Z,57.30
2023-04-18T04:26:24.570Z,57.80
2023-04-18T04:27:24.489Z,61.10
2023-04-18T04:28:24.549Z,62.20
2023-04-18T04:29:24.530Z,60.50
2023-04-18T04:30:25.051Z,58.90
2023-04-18T04:31:24.509Z,63.90
2023-04-18T04:32:25.396Z,54.80
2023-04-18T04:33:24.441Z,58.30
2023-04-18T04:34:24.553Z,54.80
2023-04-18T04:35:24.552Z,59.70
2023-04-18T04:36:24.401Z,53.60
2023-04-18T04:37:24.557Z,50.30
2023-04-18T04:38:24.386Z,57.50
2023-04-18T04:39:24.369Z,57.30
2023-04-18T04:40:24.331Z,59.70
2023-04-18T04:41:24.315Z,64.30
2023-04-18T04:42:24.308Z,56.20
2023-04-18T04:43:24.327Z,54.00
2023-04-18T04:44:24.303Z,60.00
2023-04-18T04:45:24.322Z,57.40
2023-04-18T04:46:25.134Z,52.70
2023-04-18T04:47:24.402Z,59.10
2023-04-18T04:48:24.458Z,53.80
2023-04-18T04:49:24.215Z,50.80
2023-04-18T04:50:24.203Z,58.20
2023-04-18T04:51:24.201Z,50.50
2023-04-18T04:52:24.145Z,48.90
2023-04-18T04:53:25.013Z,48.00
2023-04-18T04:54:25.024Z,51.90
2023-04-18T04:55:24.101Z,45.90
2023-04-18T04:56:24.113Z,49.90
2023-04-18T04:57:24.125Z,44.10
2023-04-18T04:58:24.149Z,44.60
2023-04-18T04:59:25.071Z,44.30
2023-04-18T05:00:24.900Z,53.20
2023-04-18T05:01:24.216Z,45.90
2023-04-18T05:02:24.223Z,43.90
2023-04-18T05:03:24.269Z,40.10
2023-04-18T05:04:24.029Z,44.80
2023-04-18T05:05:23.966Z,43.70
2023-04-18T05:06:23.989Z,40.20
2023-04-18T05:07:23.937Z,38.00
2023-04-18T05:08:24.041Z,43.10
2023-04-18T05:09:23.888Z,38.40
2023-04-18T05:10:23.989Z,34.70
2023-04-18T05:11:24.824Z,34.00
2023-04-18T05:12:23.910Z,31.70
2023-04-18T05:13:23.862Z,34.60
2023-04-18T05:14:23.938Z,32.80
2023-04-18T05:15:23.883Z,35.10
2023-04-18T05:16:23.907Z,31.70
2023-04-18T05:17:24.881Z,31.80
2023-04-18T05:18:23.802Z,29.90
2023-04-18T05:19:23.764Z,29.70
2023-04-18T05:20:23.744Z,28.40
2023-04-18T05:21:23.838Z,27.60
2023-04-18T05:22:23.695Z,28.80
2023-04-18T05:23:23.904Z,27.10
2023-04-18T05:24:23.798Z,25.70
2023-04-18T05:25:23.738Z,25.80
2023-04-18T05:26:23.713Z,26.30
2023-04-18T05:27:23.781Z,25.00
2023-04-18T05:28:23.638Z,26.40
2023-04-18T05:29:23.930Z,22.40
2023-04-18T05:30:23.947Z,24.40
2023-04-18T05:31:23.959Z,22.40
2023-04-18T05:32:23.674Z,23.40
2023-04-18T05:33:23.652Z,21.90
2023-04-18T05:34:23.660Z,22.10
2023-04-18T05:35:23.616Z,20.90
2023-04-18T05:36:23.998Z,20.90
2023-04-18T05:37:23.568Z,19.80
2023-04-18T05:38:23.495Z,20.10
2023-04-18T05:39:23.761Z,19.70
2023-04-18T05:40:24.433Z,19.30
2023-04-18T05:41:23.482Z,19.40
2023-04-18T05:42:23.469Z,20.10
2023-04-18T05:43:23.491Z,18.90
2023-04-18T05:44:23.437Z,17.30
2023-04-18T05:45:23.449Z,17.80
2023-04-18T05:46:23.423Z,17.30
2023-04-18T05:47:23.588Z,16.80
2023-04-18T05:48:23.438Z,15.00
2023-04-18T05:49:23.415Z,15.30
2023-04-18T05:50:23.371Z,15.70
2023-04-18T05:51:23.297Z,15.40
2023-04-18T05:52:23.383Z,14.60
2023-04-18T05:53:24.190Z,16.00
2023-04-18T05:54:23.308Z,16.20
2023-04-18T05:55:23.369Z,16.70
2023-04-18T05:56:23.318Z,16.70
2023-04-18T05:57:23.221Z,15.70
2023-04-18T05:58:23.291Z,16.30
2023-04-18T05:59:23.424Z,15.80
2023-04-18T06:00:23.454Z,14.80
2023-04-18T06:01:23.219Z,14.60
2023-04-18T06:02:23.353Z,15.40
2023-04-18T06:03:23.455Z,14.30
2023-04-18T06:04:24.316Z,14.00
2023-04-18T06:05:24.252Z,13.10
2023-04-18T06:06:23.900Z,13.70
2023-04-18T06:07:24.055Z,14.00
2023-04-18T06:08:23.086Z,13.40
2023-04-18T06:09:23.122Z,13.00
2023-04-18T06:10:23.104Z,12.90
2023-04-18T06:11:23.089Z,13.20
2023-04-18T06:12:23.057Z,12.80
2023-04-18T06:13:23.055Z,13.70
2023-04-18T06:14:23.891Z,12.10
2023-04-18T06:15:23.076Z,12.40
2023-04-18T06:16:23.018Z,12.30
2023-04-18T06:17:23.053Z,12.80
2023-04-18T06:18:23.792Z,12.50
2023-04-18T06:19:23.019Z,12.40
2023-04-18T06:20:22.911Z,11.70
2023-04-18T06:21:23.120Z,11.70
2023-04-18T06:22:23.013Z,11.60
2023-04-18T06:23:23.800Z,11.90
2023-04-18T06:24:23.707Z,11.60
2023-04-18T06:25:22.861Z,12.60
2023-04-18T06:26:23.094Z,11.80
2023-04-18T06:27:31.187Z,12.20
2023-04-18T06:28:23.815Z,11.10
2023-04-18T06:29:22.805Z,12.50
2023-04-18T06:30:22.903Z,11.50
2023-04-18T06:31:23.597Z,11.30
2023-04-18T06:32:22.875Z,11.20
2023-04-18T06:33:22.822Z,11.40
2023-04-18T06:34:22.776Z,11.50
2023-04-18T06:35:24.549Z,11.20
2023-04-18T06:36:22.797Z,11.30
2023-04-18T06:37:23.490Z,11.30
2023-04-18T06:38:22.673Z,11.80
2023-04-18T06:39:23.581Z,10.90
2023-04-18T06:40:22.638Z,11.00
2023-04-18T06:41:22.689Z,11.00
2023-04-18T06:42:22.911Z,10.40
2023-04-18T06:43:22.815Z,10.80
2023-04-18T06:44:22.717Z,10.20
2023-04-18T06:45:22.592Z,11.00
2023-04-18T06:46:22.771Z,10.30
2023-04-18T06:47:23.352Z,10.80
2023-04-18T06:48:22.522Z,10.10
2023-04-18T06:49:26.500Z,10.40
2023-04-18T06:50:22.479Z,10.00
2023-04-18T06:51:23.494Z,9.90
2023-04-18T06:52:23.366Z,9.10
2023-04-18T06:53:22.517Z,9.80
2023-04-18T06:54:22.501Z,9.10
2023-04-18T06:55:23.424Z,9.80
2023-04-18T06:56:22.447Z,10.40
2023-04-18T06:57:22.445Z,9.90
2023-04-18T06:58:23.290Z,10.50
2023-04-18T06:59:22.557Z,9.40
2023-04-18T07:00:23.452Z,9.10
2023-04-18T07:01:23.225Z,9.40
2023-04-18T07:02:22.608Z,9.30
2023-04-18T07:03:22.566Z,8.90
2023-04-18T07:04:22.539Z,8.80
2023-04-18T07:05:22.483Z,8.70
2023-04-18T07:06:22.393Z,8.90
2023-04-18T07:07:22.293Z,8.60
2023-04-18T07:08:22.257Z,8.20
2023-04-18T07:09:22.238Z,9.60
2023-04-18T07:10:22.340Z,8.80
2023-04-18T07:11:22.315Z,8.70
2023-04-18T07:12:22.970Z,8.50
2023-04-18T07:13:22.212Z,8.30
2023-04-18T07:14:22.156Z,7.70
2023-04-18T07:15:22.179Z,7.70
2023-04-18T07:16:22.356Z,7.60
2023-04-18T07:17:22.159Z,7.20
2023-04-18T07:18:34.185Z,7.30
2023-04-18T07:19:24.055Z,7.90
2023-04-18T07:20:22.184Z,7.60
2023-04-18T07:21:22.174Z,6.70
2023-04-18T07:22:22.150Z,6.40
2023-04-18T07:23:21.986Z,6.60
2023-04-18T07:24:22.156Z,7.20
2023-04-18T07:25:22.013Z,7.50
2023-04-18T07:26:22.101Z,7.10
2023-04-18T07:27:22.004Z,7.40
2023-04-18T07:28:22.121Z,7.70
2023-04-18T07:29:21.940Z,6.90
2023-04-18T07:30:22.171Z,7.50
2023-04-18T07:31:22.157Z,7.30
2023-04-18T07:32:21.911Z,7.00
2023-04-18T07:33:21.859Z,7.40
2023-04-18T07:34:21.844Z,6.90
2023-04-18T07:35:21.861Z,6.90
2023-04-18T07:36:21.813Z,7.20
2023-04-18T07:37:21.812Z,7.20
2023-04-18T07:38:21.808Z,7.30
2023-04-18T07:39:21.794Z,7.40
2023-04-18T07:40:21.829Z,7.40
2023-04-18T07:41:21.728Z,7.20
2023-04-18T07:42:22.168Z,7.10
2023-04-18T07:43:21.689Z,7.20
2023-04-18T07:44:21.723Z,7.20
2023-04-18T07:45:21.756Z,7.50
2023-04-18T07:46:21.711Z,7.20
2023-04-18T07:47:22.748Z,6.80
2023-04-18T07:48:21.630Z,7.00
2023-04-18T07:49:21.723Z,7.90
2023-04-18T07:50:21.685Z,6.90
2023-04-18T07:51:22.520Z,7.10
2023-04-18T07:52:22.418Z,7.90
2023-04-18T07:53:22.587Z,7.40
2023-04-18T07:54:22.079Z,7.00
2023-04-18T07:55:21.572Z,7.90
2023-04-18T07:56:22.124Z,6.70
2023-04-18T07:57:22.085Z,7.30
2023-04-18T07:58:22.187Z,6.90
2023-04-18T07:59:22.124Z,6.80
2023-04-18T08:00:21.586Z,7.20
2023-04-18T08:01:22.159Z,7.00
2023-04-18T08:02:22.328Z,6.80
2023-04-18T08:03:22.358Z,6.90
2023-04-18T08:04:29.779Z,7.10
2023-04-18T08:05:45.448Z,6.60
2023-04-18T08:06:21.504Z,7.20
2023-04-18T08:07:21.540Z,7.20
2023-04-18T08:08:22.170Z,7.20
2023-04-18T08:09:21.409Z,6.40
2023-04-18T08:10:23.709Z,7.10
2023-04-18T08:11:22.201Z,7.40
2023-04-18T08:12:21.327Z,7.60
2023-04-18T08:13:22.206Z,7.60
2023-04-18T08:14:21.843Z,6.80
2023-04-18T08:15:21.963Z,6.70
2023-04-18T08:16:22.042Z,7.10
2023-04-18T08:17:21.272Z,7.80
2023-04-18T08:18:21.231Z,7.20
2023-04-18T08:19:21.364Z,6.90
2023-04-18T08:20:21.240Z,6.40
2023-04-18T08:21:22.007Z,6.80
2023-04-18T08:22:22.158Z,6.00
2023-04-18T08:23:21.152Z,6.50
2023-04-18T08:24:22.004Z,6.50
2023-04-18T08:25:21.168Z,6.70
2023-04-18T08:26:21.216Z,6.20
2023-04-18T08:27:22.462Z,6.70
2023-04-18T08:28:21.351Z,6.70
2023-04-18T08:29:21.063Z,6.90
2023-04-18T08:30:21.163Z,6.60
2023-04-18T08:31:21.833Z,6.70
2023-04-18T08:32:21.241Z,6.30
2023-04-18T08:33:21.061Z,5.90
2023-04-18T08:34:21.210Z,5.90
2023-04-18T08:35:21.492Z,6.70
2023-04-18T08:36:21.289Z,6.70
2023-04-18T08:37:21.506Z,6.60
2023-04-18T08:38:20.968Z,6.00
2023-04-18T08:39:20.930Z,6.10
2023-04-18T08:40:21.021Z,6.60
2023-04-18T08:41:20.956Z,6.70
2023-04-18T08:42:20.878Z,6.40
2023-04-18T08:43:21.394Z,6.70
2023-04-18T08:44:21.077Z,6.30
2023-04-18T08:45:23.258Z,6.50
2023-04-18T08:46:21.073Z,7.00
2023-04-18T08:47:26.931Z,6.20
2023-04-18T08:48:21.085Z,6.10
2023-04-18T08:49:21.566Z,6.00
2023-04-18T08:50:21.585Z,6.20
2023-04-18T08:51:21.640Z,6.30
2023-04-18T08:52:21.874Z,6.50
2023-04-18T08:53:21.029Z,6.70
2023-04-18T08:54:21.758Z,6.60
2023-04-18T08:55:20.895Z,5.80
2023-04-18T08:56:25.589Z,5.80
2023-04-18T08:57:21.140Z,5.90
2023-04-18T08:58:20.914Z,5.80
2023-04-18T08:59:20.759Z,6.60
2023-04-18T09:00:20.724Z,5.90
2023-04-18T09:01:20.704Z,6.00
2023-04-18T09:02:22.929Z,6.20
2023-04-18T09:03:21.918Z,5.90
2023-04-18T09:04:22.277Z,5.70
2023-04-18T09:05:21.102Z,5.50
2023-04-18T09:06:20.747Z,5.80
2023-04-18T09:07:20.638Z,5.40
2023-04-18T09:08:20.734Z,5.40
2023-04-18T09:09:22.199Z,4.80
2023-04-18T09:10:21.365Z,5.30
2023-04-18T09:11:20.895Z,5.60
2023-04-18T09:12:21.003Z,5.40
2023-04-18T09:13:22.077Z,5.80
2023-04-18T09:14:20.913Z,5.50
2023-04-18T09:15:20.446Z,5.70
2023-04-18T09:16:20.661Z,5.30
2023-04-18T09:17:22.285Z,5.10
2023-04-18T09:18:20.395Z,4.70
2023-04-18T09:19:20.358Z,5.50
2023-04-18T09:20:20.394Z,4.80
2023-04-18T09:21:20.343Z,5.40
2023-04-18T09:22:20.442Z,5.00
2023-04-18T09:23:20.302Z,5.00
2023-04-18T09:24:20.329Z,5.60
2023-04-18T09:25:20.290Z,4.70
2023-04-18T09:26:20.304Z,4.20
2023-04-18T09:27:20.311Z,4.10
2023-04-18T09:28:21.142Z,3.90
2023-04-18T09:29:20.245Z,3.90
2023-04-18T09:30:20.713Z,4.00
2023-04-18T09:31:20.686Z,4.30
2023-04-18T09:32:22.668Z,4.00
2023-04-18T09:33:20.587Z,3.90
2023-04-18T09:34:20.774Z,4.00
2023-04-18T09:35:20.293Z,4.40
2023-04-18T09:36:20.280Z,3.90
2023-04-18T09:37:20.572Z,4.40
2023-04-18T09:38:20.273Z,4.20
2023-04-18T09:39:20.422Z,3.70
2023-04-18T09:40:20.105Z,3.80
2023-04-18T09:41:21.637Z,3.90
2023-04-18T09:42:20.235Z,3.40
2023-04-18T09:43:20.066Z,4.20
2023-04-18T09:44:21.147Z,4.10
2023-04-18T09:45:19.995Z,4.50
2023-04-18T09:46:20.026Z,3.70
2023-04-18T09:47:20.112Z,3.50
2023-04-18T09:48:19.968Z,4.10
2023-04-18T09:49:19.949Z,3.60
2023-04-18T09:50:19.956Z,3.40
2023-04-18T09:51:19.999Z,3.80
2023-04-18T09:52:20.894Z,4.40
2023-04-18T09:53:20.988Z,3.60
2023-04-18T09:54:19.938Z,3.70
2023-04-18T09:55:20.861Z,3.10
2023-04-18T09:56:19.905Z,3.40
2023-04-18T09:57:20.659Z,3.20
2023-04-18T09:58:20.834Z,3.60
2023-04-18T09:59:21.096Z,3.70
2023-04-18T10:00:19.819Z,3.40
2023-04-18T10:01:20.807Z,3.40
2023-04-18T10:02:20.852Z,4.10
2023-04-18T10:03:19.982Z,3.80
2023-04-18T10:04:20.579Z,4.10
2023-04-18T10:05:21.188Z,3.70
2023-04-18T10:06:19.909Z,3.70
2023-04-18T10:07:20.318Z,3.60
2023-04-18T10:08:20.019Z,3.50
2023-04-18T10:09:19.729Z,3.60
2023-04-18T10:10:20.104Z,3.50
2023-04-18T10:11:20.354Z,3.60
2023-04-18T10:12:19.719Z,3.40
2023-04-18T10:13:19.815Z,3.30
2023-04-18T10:14:20.067Z,3.30
2023-04-18T10:15:19.670Z,3.90
2023-04-18T10:16:19.741Z,3.40
2023-04-18T10:17:19.683Z,3.70
2023-04-18T10:18:19.673Z,3.30
2023-04-18T10:19:20.189Z,3.60
2023-04-18T10:20:19.943Z,3.90
2023-04-18T10:21:19.483Z,3.70
2023-04-18T10:22:19.580Z,3.50
2023-04-18T10:23:19.643Z,3.40
2023-04-18T10:24:20.425Z,3.70
2023-04-18T10:25:19.528Z,3.50
2023-04-18T10:26:19.530Z,3.80
2023-04-18T10:27:19.464Z,3.10
2023-04-18T10:28:20.131Z,3.40
2023-04-18T10:29:19.487Z,3.30
2023-04-18T10:30:20.280Z,3.30
2023-04-18T10:31:19.403Z,3.60
2023-04-18T10:32:20.010Z,3.40
2023-04-18T10:33:28.722Z,3.70
2023-04-18T10:34:20.561Z,3.60
2023-04-18T10:35:20.343Z,3.40
2023-04-18T10:36:20.255Z,3.50
2023-04-18T10:37:19.319Z,3.60
2023-04-18T10:38:19.327Z,3.40
2023-04-18T10:39:19.265Z,3.30
2023-04-18T10:40:19.278Z,3.50
2023-04-18T10:41:20.026Z,3.40
2023-04-18T10:42:19.274Z,3.40
2023-04-18T10:43:19.268Z,3.30
2023-04-18T10:44:19.193Z,3.40
2023-04-18T10:45:19.224Z,3.40
2023-04-18T10:46:31.168Z,3.30
2023-04-18T10:47:20.251Z,3.50
2023-04-18T10:48:19.220Z,3.40
2023-04-18T10:49:19.139Z,3.10
2023-04-18T10:50:19.168Z,3.30
2023-04-18T10:51:19.157Z,3.30
2023-04-18T10:52:19.237Z,3.50
2023-04-18T10:53:19.093Z,3.90
2023-04-18T10:54:19.154Z,4.00
2023-04-18T10:55:19.212Z,3.10
2023-04-18T10:56:18.988Z,3.40
2023-04-18T10:57:19.072Z,3.50
2023-04-18T10:58:19.048Z,3.40
2023-04-18T10:59:19.051Z,3.60
2023-04-18T11:00:18.990Z,3.90
2023-04-18T11:01:19.034Z,3.50
2023-04-18T11:02:18.958Z,3.80
2023-04-18T11:03:19.121Z,3.80
2023-04-18T11:04:19.513Z,3.50
2023-04-18T11:05:18.884Z,3.40
2023-04-18T11:06:19.745Z,3.60
2023-04-18T11:07:18.870Z,3.70
2023-04-18T11:08:18.819Z,3.50
2023-04-18T11:09:18.897Z,3.80
2023-04-18T11:10:19.894Z,3.50
2023-04-18T11:11:18.782Z,3.80
2023-04-18T11:12:19.209Z,3.90
2023-04-18T11:13:18.791Z,3.90
2023-04-18T11:14:18.805Z,3.90
2023-04-18T11:15:18.788Z,3.70
2023-04-18T11:16:18.814Z,3.70
2023-04-18T11:17:18.725Z,3.60
2023-04-18T11:18:18.674Z,3.40
2023-04-18T11:19:18.678Z,3.80
2023-04-18T11:20:18.724Z,3.70
2023-04-18T11:21:18.709Z,3.30
2023-04-18T11:22:18.728Z,3.30
2023-04-18T11:23:19.071Z,3.90
2023-04-18T11:24:19.021Z,4.30
2023-04-18T11:25:19.108Z,3.60
2023-04-18T11:26:19.555Z,3.70
2023-04-18T11:27:18.590Z,3.70
2023-04-18T11:28:19.351Z,3.90
2023-04-18T11:29:18.589Z,3.50
2023-04-18T11:30:19.282Z,3.10
2023-04-18T11:31:18.640Z,3.70
2023-04-18T11:32:18.589Z,3.70
2023-04-18T11:33:19.324Z,4.00
2023-04-18T11:34:19.226Z,4.00
2023-04-18T11:35:19.179Z,3.80
2023-04-18T11:36:19.248Z,4.50
2023-04-18T11:37:19.224Z,4.60
2023-04-18T11:38:19.289Z,4.90
2023-04-18T11:39:19.269Z,5.40
2023-04-18T11:40:19.237Z,5.60
2023-04-18T11:41:19.233Z,6.10
2023-04-18T11:42:19.249Z,5.90
2023-04-18T11:43:19.365Z,5.70
2023-04-18T11:44:19.127Z,6.00
2023-04-18T11:45:19.285Z,6.10
2023-04-18T11:46:18.372Z,6.30
2023-04-18T11:47:18.318Z,6.30
2023-04-18T11:48:18.271Z,6.10
2023-04-18T11:49:19.202Z,6.30
2023-04-18T11:50:19.038Z,6.60
2023-04-18T11:51:18.247Z,6.20
2023-04-18T11:52:18.354Z,6.70
2023-04-18T11:53:19.049Z,5.80
2023-04-18T11:54:18.304Z,6.00
2023-04-18T11:55:19.078Z,5.90
2023-04-18T11:56:18.250Z,6.00
2023-04-18T11:57:19.121Z,6.30
2023-04-18T11:58:18.160Z,6.10
2023-04-18T11:59:18.931Z,6.10
2023-04-18T12:00:19.175Z,6.20
2023-04-18T12:01:19.022Z,5.70
2023-04-18T12:02:18.204Z,5.80
2023-04-18T12:03:18.328Z,5.40
2023-04-18T12:04:18.352Z,5.30
2023-04-18T12:05:18.428Z,5.80
2023-04-18T12:06:18.023Z,5.70
2023-04-18T12:07:18.207Z,6.10
2023-04-18T12:08:18.018Z,5.70
2023-04-18T12:09:18.000Z,6.10
2023-04-18T12:10:17.962Z,5.50
2023-04-18T12:11:18.028Z,5.80
2023-04-18T12:12:17.983Z,5.80
2023-04-18T12:13:17.985Z,5.80
2023-04-18T12:14:17.918Z,5.70
2023-04-18T12:15:18.219Z,5.70
2023-04-18T12:16:17.991Z,5.70
2023-04-18T12:17:18.225Z,5.80
2023-04-18T12:18:17.886Z,6.10
2023-04-18T12:19:18.254Z,6.30
2023-04-18T12:20:17.857Z,6.20
2023-04-18T12:21:17.795Z,6.10
2023-04-18T12:22:17.858Z,6.10
2023-04-18T12:23:17.782Z,5.20
2023-04-18T12:24:18.089Z,5.80
2023-04-18T12:25:17.758Z,6.40
2023-04-18T12:26:17.736Z,6.10
2023-04-18T12:27:17.695Z,6.10
2023-04-18T12:28:17.727Z,6.00
2023-04-18T12:29:17.957Z,5.40
2023-04-18T12:30:17.748Z,6.00
2023-04-18T12:31:17.753Z,5.90
2023-04-18T12:32:17.698Z,6.00
2023-04-18T12:33:17.740Z,5.70
2023-04-18T12:34:17.676Z,6.00
2023-04-18T12:35:17.672Z,6.00
2023-04-18T12:36:17.666Z,6.30
2023-04-18T12:37:17.642Z,6.20
2023-04-18T12:38:17.631Z,7.00
2023-04-18T12:39:17.566Z,6.20
2023-04-18T12:40:17.525Z,6.50
2023-04-18T12:41:18.483Z,6.90
2023-04-18T12:42:17.594Z,6.10
2023-04-18T12:43:17.653Z,6.60
2023-04-18T12:44:17.557Z,6.00
2023-04-18T12:45:17.539Z,6.80
2023-04-18T12:46:17.571Z,5.60
2023-04-18T12:47:17.646Z,6.40
2023-04-18T12:48:17.596Z,6.70
2023-04-18T12:49:17.462Z,6.50
2023-04-18T12:50:17.458Z,6.20
2023-04-18T12:51:17.650Z,7.20
2023-04-18T12:52:17.336Z,6.30
2023-04-18T12:53:17.411Z,6.20
2023-04-18T12:54:17.353Z,6.40
2023-04-18T12:55:18.171Z,6.10
2023-04-18T12:56:17.332Z,6.20
2023-04-18T12:57:17.300Z,5.80
2023-04-18T12:58:17.319Z,5.90
2023-04-18T12:59:17.295Z,5.60
2023-04-18T13:00:17.313Z,6.20
2023-04-18T13:01:17.358Z,6.00
2023-04-18T13:02:17.355Z,6.00
2023-04-18T13:03:17.473Z,6.20
2023-04-18T13:04:17.468Z,6.00